Towaco, NJ

7:54 PM EDT on October 25, 2014 (GMT -0400)
KNJMONTV2 | Change Station
CLOSE
Current Station
Personal Weather Station
Location: Montville, NJ
Elevation: 410 ft
Nearby Weather Stations

Elev 410 ft 40.89 °N, 74.35 °W | Updated 6 minutes ago

Mostly Cloudy
Mostly Cloudy
58.1 °F
Feels Like 58.1 °F
N
0.0
Wind Variable Wind from East
Gusts 1.0 mph

Today
High -- | Low -- °F
--% Chance of Precip.
Yesterday
High -- | Low -- °F
Precip. -- in
7:19 AM 6:02 PM
Waxing Crescent, 5% visible
Pressure 29.66 in
Visibility 10.0 miles
Clouds Overcast 7500 ft
Dew Point 48 °F
Humidity 69%
Rainfall 0.00 in
Snow Depth Not available.
UV 0 out of 12
Pollen 1.40 out of 12
PM2.5 Good
Flu Activity Sporadic
METAR KCDW 252253Z 22005KT 10SM OVC075 17/06 A2965 RMK AO2 SLP044 T01720056

More Conditions Fewer Conditions

Pressure 29.66 in
Visibility 10.0 miles
Clouds Overcast 7500 ft
Dew Point 48 °F
Humidity 69%
Rainfall 0.00 in
Snow Depth Not available.
UV 0 out of 12
Pollen 1.40 out of 12
PM2.5 Good
Flu Activity Sporadic
METAR KCDW 252253Z 22005KT 10SM OVC075 17/06 A2965 RMK AO2 SLP044 T01720056

More Conditions Fewer Conditions

10-Day Weather Forecast

Almanac

Astronomy

Oct. 25, 2014 Rise Set
Actual Time 7:19 AM EDT 6:02 PM EDT
Civil Twilight 6:51 AM EDT 6:30 PM EDT
Nautical Twilight 6:19 AM EDT 7:02 PM EDT
Astronomical Twilight 5:47 AM EDT 7:34 PM EDT
Moon 8:56 AM EDT 7:22 PM EDT
Length of Visible Light 11h 38m
Length of Day
10h 42m
Tomorrow will be 2m 30s shorter.
Waxing Crescent, 5% of the Moon is Illuminated
Today
Waxing Crescent
Oct 30
First Quarter
Nov 6
Full
Nov 14
Last Quarter
Nov 22
New

Today's Extremes

State Highs State Lows

Community

WunderPhotos

Upload Photos

1,765,034 photos uploaded!

Nearby

Air Quality

  Air Quality AQ Index Pollutant
Yesterday Good
PM2.5
Current Good
PM2.5
Saturday Good
PM2.5
Sunday Good
PM2.5
Monday Good
PM2.5

Snow Depth

Station Depth Elevation
No new snow has been reported.

Earthquake Activity

City Distance Mag. Time & Date
No recent earthquake activity has been reported nearby.
Minimum magnitude displayed is 2.5.

Coastal Water Temperatures

Place Temperature
Sandy Hook, NJ 57.9 °F
The Battery, NY 61.0 °F
Bergen Point West Reach, NJ 61.0 °F

Nearby Weather Stations